createdAt,value
2018-05-08T00:01:17.078Z,65.50
2018-05-08T00:03:44.764Z,65.40
2018-05-08T00:06:13.762Z,65.90
2018-05-08T00:08:41.975Z,65.90
2018-05-08T00:11:10.719Z,66.10
2018-05-08T00:13:39.037Z,66.60
2018-05-08T00:16:06.588Z,66.60
2018-05-08T00:18:34.275Z,66.60
2018-05-08T00:21:01.824Z,66.90
2018-05-08T00:23:29.553Z,67.00
2018-05-08T00:25:57.076Z,67.30
2018-05-08T01:25:18.321Z,68.70
2018-05-08T01:27:49.709Z,68.70
2018-05-08T01:30:17.253Z,68.60
2018-05-08T01:32:44.973Z,67.90
2018-05-08T01:35:12.605Z,67.50
2018-05-08T01:37:40.322Z,67.50
2018-05-08T01:40:07.887Z,67.50
2018-05-08T01:42:35.455Z,67.30
2018-05-08T01:45:03.124Z,67.50
2018-05-08T01:47:30.649Z,67.30
2018-05-08T01:49:58.197Z,67.10
2018-05-08T01:52:26.818Z,66.90
2018-05-08T01:54:54.958Z,66.70
2018-05-08T01:57:23.506Z,67.80
2018-05-08T01:59:51.061Z,67.00
2018-05-08T02:02:18.589Z,66.40
2018-05-08T02:04:46.752Z,66.70
2018-05-08T02:07:14.315Z,66.70
2018-05-08T02:09:43.939Z,66.30
2018-05-08T02:12:11.494Z,66.30
2018-05-08T02:14:39.052Z,66.20
2018-05-08T02:17:06.775Z,66.60
2018-05-08T02:19:35.090Z,66.90
2018-05-08T02:22:03.063Z,67.00
2018-05-08T02:24:31.473Z,66.80
2018-05-08T02:26:59.034Z,67.10
2018-05-08T02:29:26.587Z,67.30
2018-05-08T02:31:54.423Z,67.60
2018-05-08T02:34:22.740Z,67.70
2018-05-08T02:36:51.219Z,68.00
2018-05-08T02:39:18.876Z,68.00
2018-05-08T02:41:46.409Z,68.00
2018-05-08T02:44:14.404Z,68.10
2018-05-08T02:46:41.972Z,68.30
2018-05-08T02:49:09.865Z,68.20
2018-05-08T02:51:37.596Z,68.60
2018-05-08T02:54:05.198Z,68.80
2018-05-08T02:56:32.815Z,68.80
2018-05-08T02:59:00.374Z,68.90
2018-05-08T03:01:27.908Z,69.90
2018-05-08T03:03:55.468Z,69.20
2018-05-08T03:06:23.742Z,69.40
2018-05-08T03:08:51.337Z,69.40
2018-05-08T03:11:18.890Z,69.40
2018-05-08T03:13:47.444Z,69.50
2018-05-08T03:16:15.803Z,69.60
2018-05-08T03:18:43.585Z,69.60
2018-05-08T03:21:11.886Z,69.70
2018-05-08T03:23:39.454Z,69.80
2018-05-08T03:26:07.975Z,69.80
2018-05-08T03:28:36.211Z,69.70
2018-05-08T03:31:04.473Z,69.60
2018-05-08T03:33:32.119Z,69.60
2018-05-08T03:36:00.425Z,69.50
2018-05-08T03:38:28.087Z,69.50
2018-05-08T03:40:55.988Z,69.20
2018-05-08T03:43:23.568Z,69.10
2018-05-08T03:45:51.171Z,69.10
2018-05-08T03:48:18.929Z,68.80
2018-05-08T03:50:46.563Z,68.70
2018-05-08T03:53:14.277Z,68.60
2018-05-08T03:55:41.875Z,68.40
2018-05-08T03:58:09.431Z,68.20
2018-05-08T04:00:49.161Z,68.00
2018-05-08T04:03:28.311Z,68.00
2018-05-08T04:05:58.820Z,67.90
2018-05-08T04:08:32.832Z,67.80
2018-05-08T04:11:01.267Z,67.50
2018-05-08T04:13:29.106Z,67.20
2018-05-08T04:15:57.526Z,59.20
2018-05-08T04:18:25.500Z,59.00
2018-05-08T04:20:53.072Z,54.80
2018-05-08T04:23:20.924Z,51.80
2018-05-08T04:25:48.570Z,49.60
2018-05-08T04:28:16.093Z,47.60
2018-05-08T04:30:45.292Z,44.40
2018-05-08T04:33:12.848Z,44.30
2018-05-08T04:35:41.182Z,42.30
2018-05-08T04:38:08.729Z,42.30
2018-05-08T04:40:36.474Z,41.20
2018-05-08T04:43:04.764Z,38.10
2018-05-08T04:45:32.343Z,38.10
2018-05-08T04:48:00.391Z,37.60
2018-05-08T04:50:27.932Z,36.20
2018-05-08T04:52:55.507Z,35.10
2018-05-08T04:55:23.911Z,32.80
2018-05-08T04:57:51.460Z,32.70
2018-05-08T05:00:18.980Z,31.90
2018-05-08T05:02:46.680Z,31.20
2018-05-08T05:05:14.186Z,30.50
2018-05-08T05:07:41.927Z,30.00
2018-05-08T05:10:09.462Z,30.00
2018-05-08T05:12:36.987Z,29.70
2018-05-08T05:15:04.535Z,29.20
2018-05-08T05:17:32.235Z,29.30
2018-05-08T05:20:01.053Z,27.70
2018-05-08T05:22:28.705Z,27.70
2018-05-08T05:24:56.267Z,27.70
2018-05-08T05:27:23.863Z,27.30
2018-05-08T05:29:51.412Z,26.80
2018-05-08T05:32:19.003Z,26.40
2018-05-08T05:34:47.229Z,25.70
2018-05-08T05:37:14.947Z,25.30
2018-05-08T05:39:42.549Z,24.90
2018-05-08T05:42:13.736Z,25.00
2018-05-08T05:44:41.278Z,24.70
2018-05-08T05:47:08.820Z,25.70
2018-05-08T05:49:36.914Z,25.40
2018-05-08T05:52:04.581Z,25.40
2018-05-08T05:54:32.132Z,24.80
2018-05-08T05:57:00.160Z,24.40
2018-05-08T05:59:27.932Z,24.30
2018-05-08T06:01:55.454Z,24.60
2018-05-08T06:04:22.993Z,24.30
2018-05-08T06:06:50.652Z,24.10
2018-05-08T06:09:18.658Z,24.20
2018-05-08T06:11:46.230Z,23.80
2018-05-08T06:14:14.744Z,22.70
2018-05-08T06:16:42.313Z,22.60
2018-05-08T06:19:09.878Z,22.80
2018-05-08T06:21:37.407Z,22.60
2018-05-08T06:24:05.749Z,22.40
2018-05-08T06:26:33.619Z,22.30
2018-05-08T06:29:01.125Z,22.50
2018-05-08T06:31:28.636Z,22.80
2018-05-08T06:33:56.398Z,23.00
2018-05-08T06:36:23.927Z,23.00
2018-05-08T06:38:51.480Z,22.60
2018-05-08T06:41:19.026Z,23.00
2018-05-08T06:43:46.622Z,22.20
2018-05-08T06:46:14.225Z,22.00
2018-05-08T06:48:42.571Z,21.90
2018-05-08T06:51:10.083Z,21.90
2018-05-08T06:53:37.884Z,21.90
2018-05-08T06:56:05.631Z,22.20
2018-05-08T06:58:33.718Z,22.00
2018-05-08T07:01:01.799Z,22.50
2018-05-08T07:03:29.295Z,22.10
2018-05-08T07:05:57.710Z,22.10
2018-05-08T07:08:25.389Z,22.00
2018-05-08T07:10:52.957Z,22.60
2018-05-08T07:13:20.710Z,23.00
2018-05-08T07:15:49.217Z,24.00
2018-05-08T07:18:16.741Z,23.50
2018-05-08T07:20:44.338Z,23.50
2018-05-08T07:23:11.877Z,23.90
2018-05-08T07:25:39.537Z,24.00
2018-05-08T07:28:07.346Z,24.70
2018-05-08T07:30:35.470Z,25.00
2018-05-08T07:33:03.030Z,25.70
2018-05-08T07:35:30.654Z,25.80
2018-05-08T07:37:58.949Z,25.20
2018-05-08T07:40:26.689Z,25.20
2018-05-08T07:42:55.210Z,25.70
2018-05-08T07:45:22.783Z,25.60
2018-05-08T07:47:50.353Z,25.80
2018-05-08T07:50:17.825Z,25.80
2018-05-08T07:52:50.479Z,26.30
2018-05-08T07:55:18.790Z,27.50
2018-05-08T07:57:46.484Z,27.50
2018-05-08T08:00:15.112Z,27.90
2018-05-08T08:02:42.819Z,27.90
2018-05-08T08:05:10.359Z,27.30
2018-05-08T08:07:38.033Z,27.60
2018-05-08T08:10:06.571Z,27.40
2018-05-08T08:12:34.188Z,27.90
2018-05-08T08:15:01.891Z,29.30
2018-05-08T08:17:29.412Z,29.40
2018-05-08T08:19:56.994Z,28.70
2018-05-08T08:22:24.817Z,29.20
2018-05-08T08:24:52.465Z,28.90
2018-05-08T08:27:20.529Z,29.50
2018-05-08T08:29:48.838Z,29.40
2018-05-08T08:32:16.415Z,30.40
2018-05-08T08:34:45.024Z,30.70
2018-05-08T08:37:12.539Z,30.70
2018-05-08T08:39:40.359Z,31.10
2018-05-08T08:42:08.858Z,31.30
2018-05-08T08:44:36.432Z,31.30
2018-05-08T08:47:05.298Z,31.70
2018-05-08T08:49:32.910Z,31.60
2018-05-08T08:52:00.472Z,31.90
2018-05-08T08:54:29.961Z,34.70
2018-05-08T08:56:57.519Z,33.90
2018-05-08T08:59:25.326Z,34.40
2018-05-08T09:01:54.089Z,33.00
2018-05-08T09:04:21.705Z,33.00
2018-05-08T09:06:49.273Z,32.50
2018-05-08T09:09:16.897Z,33.10
2018-05-08T09:11:44.736Z,32.40
2018-05-08T09:14:13.271Z,32.80
2018-05-08T09:16:40.865Z,33.20
2018-05-08T09:19:08.435Z,31.90
2018-05-08T09:21:35.983Z,33.40
2018-05-08T09:24:08.908Z,33.50
2018-05-08T09:26:37.250Z,33.60
2018-05-08T09:29:04.863Z,33.60
2018-05-08T09:31:33.279Z,33.90
2018-05-08T09:34:01.563Z,34.10
2018-05-08T09:36:29.168Z,34.60
2018-05-08T09:38:56.672Z,34.10
2018-05-08T09:41:24.267Z,34.20
2018-05-08T09:43:51.826Z,34.10
2018-05-08T09:46:19.416Z,35.00
2018-05-08T09:48:47.303Z,34.50
2018-05-08T09:51:15.845Z,35.50
2018-05-08T09:53:44.217Z,36.20
2018-05-08T09:56:11.994Z,35.70
2018-05-08T09:58:40.581Z,35.10
2018-05-08T10:01:08.239Z,35.10
2018-05-08T10:03:35.738Z,35.40
2018-05-08T10:06:03.976Z,35.90
2018-05-08T10:08:32.223Z,35.50
2018-05-08T10:10:59.989Z,35.30
2018-05-08T10:13:28.096Z,35.60
2018-05-08T10:15:56.951Z,36.00
2018-05-08T10:18:24.996Z,36.00
2018-05-08T10:20:52.757Z,35.80
2018-05-08T10:23:21.521Z,35.50
2018-05-08T10:25:51.134Z,33.70
2018-05-08T10:28:18.669Z,33.70
2018-05-08T10:30:46.437Z,35.70
2018-05-08T10:33:14.268Z,36.00
2018-05-08T10:35:41.841Z,35.80
2018-05-08T10:38:09.493Z,36.20
2018-05-08T10:40:38.655Z,35.80
2018-05-08T10:43:07.177Z,36.20
2018-05-08T10:45:34.979Z,36.10
2018-05-08T10:48:02.764Z,36.60
2018-05-08T10:50:30.376Z,36.50
2018-05-08T10:52:58.125Z,34.60
2018-05-08T10:55:25.751Z,34.60
2018-05-08T10:57:53.306Z,33.30
2018-05-08T11:00:21.692Z,33.50
2018-05-08T11:02:49.287Z,32.70
2018-05-08T11:05:17.599Z,33.00
2018-05-08T11:07:45.162Z,32.80
2018-05-08T11:10:13.621Z,32.70
2018-05-08T11:12:41.998Z,33.30
2018-05-08T11:15:09.539Z,33.40
2018-05-08T11:17:37.080Z,33.30
2018-05-08T11:20:05.233Z,33.20
2018-05-08T11:22:33.750Z,32.20
2018-05-08T11:25:01.526Z,32.80
2018-05-08T11:27:29.148Z,33.10
2018-05-08T11:29:56.740Z,32.90
2018-05-08T11:32:24.673Z,33.00
2018-05-08T11:34:52.228Z,33.40
2018-05-08T11:37:20.955Z,33.10
2018-05-08T11:39:48.658Z,33.10
2018-05-08T11:42:16.934Z,33.30
2018-05-08T11:44:44.511Z,33.60
2018-05-08T11:47:12.665Z,33.40
2018-05-08T11:49:40.875Z,33.30
2018-05-08T11:52:08.372Z,33.80
2018-05-08T11:54:36.625Z,34.10
2018-05-08T11:57:04.168Z,34.00
2018-05-08T11:59:32.608Z,34.50
2018-05-08T12:02:00.414Z,34.50
2018-05-08T12:04:29.322Z,34.60
2018-05-08T12:06:57.163Z,34.50
2018-05-08T12:09:26.029Z,35.10
2018-05-08T12:11:53.543Z,35.00
2018-05-08T12:14:21.049Z,34.80
2018-05-08T12:16:48.793Z,35.00
2018-05-08T12:19:16.351Z,35.30
2018-05-08T12:21:44.040Z,35.60
2018-05-08T12:24:11.693Z,36.70
2018-05-08T12:26:39.249Z,36.20
2018-05-08T12:29:07.237Z,36.70
2018-05-08T12:31:35.500Z,36.80
2018-05-08T12:34:03.004Z,37.10
2018-05-08T12:36:30.622Z,36.90
2018-05-08T12:41:32.551Z,36.80
2018-05-08T12:44:01.352Z,36.90
2018-05-08T12:46:29.374Z,36.90
2018-05-08T12:48:56.916Z,37.20
2018-05-08T12:51:24.491Z,37.40
2018-05-08T12:53:52.108Z,37.70
2018-05-08T12:56:20.743Z,37.60
2018-05-08T12:58:48.661Z,37.50
2018-05-08T13:01:16.601Z,37.70
2018-05-08T13:03:44.129Z,37.90
2018-05-08T13:06:11.988Z,37.50
2018-05-08T13:08:39.663Z,37.60
2018-05-08T13:11:07.249Z,37.70
2018-05-08T13:13:34.765Z,37.80
2018-05-08T13:16:02.679Z,37.60
2018-05-08T13:18:30.271Z,37.70
2018-05-08T13:20:58.106Z,37.60
2018-05-08T13:23:26.574Z,37.20
2018-05-08T13:25:58.231Z,36.80
2018-05-08T13:28:27.741Z,36.80
2018-05-08T13:30:55.375Z,36.40
2018-05-08T13:33:27.822Z,36.00
2018-05-08T13:35:55.825Z,35.70
2018-05-08T13:38:23.702Z,35.50
2018-05-08T13:40:52.223Z,35.30
2018-05-08T13:43:19.930Z,35.30
2018-05-08T13:45:48.166Z,35.30
2018-05-08T13:48:16.000Z,34.50
2018-05-08T13:50:43.604Z,34.50
2018-05-08T13:53:11.341Z,34.10
2018-05-08T13:55:39.119Z,34.40
2018-05-08T13:58:06.663Z,34.10
2018-05-08T14:00:34.995Z,34.10
2018-05-08T14:03:03.444Z,34.10
2018-05-08T14:05:30.992Z,34.40
2018-05-08T14:07:58.698Z,33.80
2018-05-08T14:10:26.459Z,33.60
2018-05-08T14:12:53.981Z,33.80
2018-05-08T14:15:22.415Z,33.30
2018-05-08T14:17:49.921Z,33.50
2018-05-08T14:20:17.478Z,33.50
2018-05-08T14:22:45.523Z,33.60
2018-05-08T14:25:13.711Z,33.30
2018-05-08T14:27:42.018Z,33.80
2018-05-08T14:30:10.449Z,33.80
2018-05-08T14:32:39.685Z,33.80
2018-05-08T14:35:07.690Z,33.60
2018-05-08T14:37:35.606Z,33.40
2018-05-08T14:40:03.184Z,33.30
2018-05-08T14:42:30.800Z,33.50
2018-05-08T14:44:58.442Z,33.20
2018-05-08T14:47:25.971Z,33.50
2018-05-08T14:49:53.577Z,33.60
2018-05-08T14:52:21.288Z,33.40
2018-05-08T14:54:48.846Z,33.20
2018-05-08T14:57:16.350Z,33.50
2018-05-08T14:59:44.348Z,33.40
2018-05-08T15:02:12.399Z,34.00
2018-05-08T15:04:40.064Z,33.40
2018-05-08T15:07:07.607Z,33.40
2018-05-08T15:09:35.177Z,33.60
2018-05-08T15:12:02.729Z,34.00
2018-05-08T15:14:30.399Z,34.20
2018-05-08T15:16:58.006Z,34.40
2018-05-08T15:19:25.576Z,34.40
2018-05-08T15:21:53.139Z,34.20
2018-05-08T15:24:20.944Z,34.20
2018-05-08T15:26:48.492Z,34.10
2018-05-08T15:29:16.061Z,34.30
2018-05-08T15:31:44.562Z,33.50
2018-05-08T15:34:12.315Z,33.50
2018-05-08T15:36:39.966Z,33.90
2018-05-08T15:39:07.515Z,33.90
2018-05-08T15:41:35.171Z,33.80
2018-05-08T15:44:03.510Z,33.90
2018-05-08T15:46:31.808Z,33.90
2018-05-08T15:48:59.670Z,33.90
2018-05-08T15:51:27.276Z,33.70
2018-05-08T15:53:55.618Z,33.10
2018-05-08T15:56:23.308Z,33.10
2018-05-08T15:58:50.952Z,33.30
2018-05-08T16:01:18.622Z,32.90
2018-05-08T16:03:46.965Z,33.30
2018-05-08T16:06:15.283Z,33.10
2018-05-08T16:08:43.120Z,33.30
2018-05-08T16:11:10.682Z,32.90
2018-05-08T16:13:38.242Z,33.10
2018-05-08T16:16:06.656Z,32.90
2018-05-08T16:18:34.431Z,32.90
2018-05-08T16:21:02.025Z,33.30
2018-05-08T16:23:29.535Z,33.50
2018-05-08T16:25:57.281Z,32.90
2018-05-08T16:28:24.896Z,32.80
2018-05-08T16:30:52.608Z,32.90
2018-05-08T16:33:21.349Z,32.60
2018-05-08T16:35:48.887Z,32.40
2018-05-08T16:38:16.638Z,32.50
2018-05-08T16:40:44.558Z,32.60
2018-05-08T16:43:12.121Z,32.70
2018-05-08T16:45:39.688Z,32.70
2018-05-08T16:48:07.448Z,32.70
2018-05-08T16:50:34.909Z,32.80
2018-05-08T16:53:03.222Z,32.80
2018-05-08T16:55:30.764Z,32.80
2018-05-08T16:57:58.277Z,33.00
2018-05-08T17:00:27.212Z,33.70
2018-05-08T17:02:55.337Z,33.20
2018-05-08T17:05:23.088Z,33.10
2018-05-08T17:07:50.956Z,33.30
2018-05-08T17:10:19.009Z,33.50
2018-05-08T17:12:47.198Z,33.70
2018-05-08T17:15:15.842Z,33.80
2018-05-08T17:17:44.139Z,34.00
2018-05-08T17:20:11.731Z,33.90
2018-05-08T17:22:39.781Z,34.00
2018-05-08T17:25:07.668Z,33.90
2018-05-08T17:27:35.372Z,34.10
2018-05-08T17:30:02.924Z,34.10
2018-05-08T17:32:30.736Z,34.20
2018-05-08T17:34:58.812Z,34.50
2018-05-08T17:37:26.358Z,34.50
2018-05-08T17:39:54.009Z,34.20
2018-05-08T17:42:22.671Z,34.50
2018-05-08T17:44:50.278Z,34.50
2018-05-08T17:47:17.823Z,34.50
2018-05-08T17:49:46.102Z,34.60
2018-05-08T17:52:13.704Z,34.70
2018-05-08T17:54:41.780Z,34.70
2018-05-08T17:57:09.305Z,35.00
2018-05-08T17:59:36.932Z,34.90
2018-05-08T18:02:04.448Z,35.00
2018-05-08T18:04:31.990Z,35.20
2018-05-08T18:06:59.578Z,35.20
2018-05-08T18:09:27.388Z,35.30
2018-05-08T18:11:54.956Z,35.10
2018-05-08T18:14:23.298Z,35.40
2018-05-08T18:16:52.366Z,36.10
2018-05-08T18:19:19.918Z,35.50
2018-05-08T18:21:47.410Z,35.60
2018-05-08T18:24:14.981Z,35.70
2018-05-08T18:26:43.449Z,35.90
2018-05-08T18:29:11.197Z,36.10
2018-05-08T18:31:39.643Z,36.10
2018-05-08T18:34:07.218Z,36.30
2018-05-08T18:36:34.778Z,36.60
2018-05-08T18:39:03.290Z,36.70
2018-05-08T18:41:30.897Z,37.00
2018-05-08T18:43:58.495Z,37.10
2018-05-08T18:46:27.687Z,37.50
2018-05-08T18:48:55.522Z,37.40
2018-05-08T18:51:23.064Z,37.50
2018-05-08T18:53:51.796Z,37.70
2018-05-08T18:56:19.546Z,38.00
2018-05-08T18:58:47.919Z,38.20
2018-05-08T19:01:15.470Z,38.40
2018-05-08T19:03:43.829Z,38.90
2018-05-08T19:06:11.618Z,38.80
2018-05-08T19:08:39.232Z,39.10
2018-05-08T19:11:13.519Z,39.30
2018-05-08T19:13:41.491Z,39.40
2018-05-08T19:16:09.049Z,39.70
2018-05-08T19:18:42.676Z,39.80
2018-05-08T19:21:10.519Z,39.80
2018-05-08T19:23:47.153Z,39.90
2018-05-08T19:26:15.503Z,40.60
2018-05-08T19:28:51.613Z,40.20
2018-05-08T19:31:20.185Z,40.40
2018-05-08T19:33:47.730Z,40.50
2018-05-08T19:36:21.521Z,40.60
2018-05-08T19:38:50.027Z,40.70
2018-05-08T19:41:18.689Z,40.80
2018-05-08T19:43:46.521Z,40.80
2018-05-08T19:46:14.127Z,40.80
2018-05-08T19:48:41.765Z,40.90
2018-05-08T19:51:09.333Z,41.00
2018-05-08T19:53:39.016Z,41.20
2018-05-08T19:56:06.613Z,41.20
2018-05-08T19:58:34.547Z,41.20
2018-05-08T20:01:02.421Z,41.30
2018-05-08T20:03:30.899Z,41.30
2018-05-08T20:05:58.654Z,41.50
2018-05-08T20:08:26.236Z,41.60
2018-05-08T20:10:53.823Z,41.70
2018-05-08T20:13:21.403Z,42.00
2018-05-08T20:15:49.734Z,42.00
2018-05-08T20:18:17.480Z,42.00
2018-05-08T20:20:45.096Z,42.10
2018-05-08T20:23:12.773Z,42.00
2018-05-08T20:25:41.631Z,42.20
2018-05-08T20:28:09.460Z,42.10
2018-05-08T20:30:37.752Z,42.80
2018-05-08T20:33:05.321Z,42.20
2018-05-08T20:35:32.904Z,42.10
2018-05-08T20:38:00.747Z,42.10
2018-05-08T20:40:29.331Z,42.20
2018-05-08T20:42:58.057Z,42.20
2018-05-08T20:45:25.899Z,42.30
2018-05-08T20:47:54.457Z,42.20
2018-05-08T20:50:22.069Z,42.30
2018-05-08T20:52:49.941Z,42.50
2018-05-08T20:55:20.519Z,42.40
2018-05-08T20:57:49.489Z,42.20
2018-05-08T21:00:18.644Z,42.80
2018-05-08T21:02:47.606Z,42.20
2018-05-08T21:05:15.187Z,42.20
2018-05-08T21:07:43.258Z,42.30
2018-05-08T21:10:10.784Z,42.30
2018-05-08T21:12:38.325Z,42.60
2018-05-08T21:15:05.934Z,42.80
2018-05-08T21:17:33.549Z,43.00
2018-05-08T21:20:01.081Z,42.90
2018-05-08T21:22:30.208Z,43.30
2018-05-08T21:24:58.372Z,43.10
2018-05-08T21:27:34.216Z,43.10
2018-05-08T21:30:08.061Z,43.20
2018-05-08T21:32:35.774Z,43.20
2018-05-08T21:35:04.082Z,43.10
2018-05-08T21:37:31.600Z,43.10
2018-05-08T21:39:59.194Z,43.20
2018-05-08T21:42:27.722Z,43.10
2018-05-08T21:44:55.802Z,43.10
2018-05-08T21:47:24.635Z,43.20
2018-05-08T21:49:52.187Z,43.00
2018-05-08T21:52:19.958Z,43.30
2018-05-08T21:54:50.376Z,43.30
2018-05-08T21:57:18.621Z,43.30
2018-05-08T21:59:46.499Z,43.20
2018-05-08T22:02:15.615Z,43.30
2018-05-08T22:04:43.152Z,43.40
2018-05-08T22:07:11.098Z,43.50
2018-05-08T22:09:39.202Z,43.60
2018-05-08T22:12:06.935Z,43.70
2018-05-08T22:14:34.840Z,43.70
2018-05-08T22:17:02.396Z,43.80
2018-05-08T22:19:30.120Z,43.80
2018-05-08T22:21:58.104Z,44.50
2018-05-08T22:24:26.221Z,44.00
2018-05-08T22:26:54.581Z,44.40
2018-05-08T22:29:22.523Z,44.40
2018-05-08T22:31:52.084Z,44.50
2018-05-08T22:34:20.868Z,44.70
2018-05-08T22:36:48.619Z,44.70
2018-05-08T22:39:17.597Z,44.70
2018-05-08T22:41:45.165Z,44.80
2018-05-08T22:44:13.241Z,44.90
2018-05-08T22:46:41.009Z,44.90
2018-05-08T22:49:08.664Z,45.00
2018-05-08T22:51:36.489Z,45.10
2018-05-08T22:54:03.998Z,45.20
2018-05-08T22:56:31.524Z,45.30
2018-05-08T22:58:59.185Z,45.40
2018-05-08T23:01:27.280Z,45.70
2018-05-08T23:03:55.911Z,46.10
2018-05-08T23:06:24.037Z,46.00
2018-05-08T23:08:51.672Z,46.10
2018-05-08T23:11:20.625Z,46.50
2018-05-08T23:13:48.399Z,46.50
2018-05-08T23:16:17.407Z,46.50
2018-05-08T23:18:45.922Z,46.70
2018-05-08T23:21:14.208Z,46.80
2018-05-08T23:23:42.695Z,47.10
2018-05-08T23:26:13.369Z,47.30
2018-05-08T23:28:42.733Z,47.50
2018-05-08T23:31:10.472Z,47.60
2018-05-08T23:33:39.249Z,47.70
2018-05-08T23:36:07.250Z,47.90
2018-05-08T23:38:35.174Z,48.00
2018-05-08T23:41:02.738Z,48.10
2018-05-08T23:43:30.466Z,48.10
2018-05-08T23:45:58.625Z,48.90
2018-05-08T23:48:27.437Z,48.50
2018-05-08T23:50:55.012Z,48.50
2018-05-08T23:53:23.293Z,48.70
2018-05-08T23:55:50.892Z,48.90
2018-05-08T23:58:20.390Z,49.00
